Time;durP1;ratioP1;P1;durP2;ratioP2;P2;SDS_P1;SDS_P2;PMS_P1;PMS_P2;Temp;Humidity;BMP_temperature;BMP_pressure;BME280_temperature;BME280_humidity;BME280_pressure;Samples;Min_cycle;Max_cycle;Signal;HPM_P1;HPM_P2
2023/05/13 00:01:08;;;;;;;;;;;;;;;;;;5032440;23;19932;-79
2023/05/13 00:03:34;;;;;;;;;;;;;;;;;;5034364;28;20420;-80
2023/05/13 00:06:00;;;;;;;;;;;;;;;;;;5036353;28;19913;-80
2023/05/13 00:08:25;;;;;;;;;;;;;;;;;;5034478;28;19917;-80
2023/05/13 00:10:51;;;;;;;;;;;;;;;;;;5034684;28;19917;-79
2023/05/13 00:13:16;;;;;;;;;;;;;;;;;;5036976;28;19913;-79
2023/05/13 00:15:41;;;;;;;;;;;;;;;;;;5036356;28;19967;-79
2023/05/13 00:18:07;;;;;;;;;;;;;;;;;;5037591;28;19948;-78
2023/05/13 00:20:32;;;;;;;;;;;;;;;;;;5037987;28;19913;-79
2023/05/13 00:22:58;;;;;;;;;;;;;;;;;;5038050;28;20442;-79
2023/05/13 00:25:23;;;;;;;;;;;;;;;;;;5039419;28;19992;-80
2023/05/13 00:27:51;;;;;;;;;;;;;;;;;;5033533;28;20027;-80
2023/05/13 00:30:17;;;;;;;;;;;;;;;;;;5034758;28;20384;-80
2023/05/13 00:32:42;;;;;;;;;;;;;;;;;;5028761;28;19918;-80
2023/05/13 00:35:08;;;;;;;;;;;;;;;;;;5012182;28;19933;-80
2023/05/13 00:37:33;;;;;;;;;;;;;;;;;;4979740;28;19952;-80
2023/05/13 00:39:59;;;;;;;;;;;;;;;;;;5012480;28;20364;-80
2023/05/13 00:42:25;;;;;;;;;;;;;;;;;;5013525;28;19919;-80
2023/05/13 00:44:50;;;;;;;;;;;;;;;;;;4979802;28;19968;-79
2023/05/13 00:47:15;;;;;;;;;;;;;;;;;;4995527;28;19959;-79
2023/05/13 00:49:41;;;;;;;;;;;;;;;;;;5011954;28;19921;-79
2023/05/13 00:52:06;;;;;;;;;;;;;;;;;;5000917;28;19913;-79
2023/05/13 00:54:31;;;;;;;;;;;;;;;;;;5013225;28;19917;-80
2023/05/13 00:56:58;;;;;;;;;;;;;;;;;;5012010;28;20365;-79
2023/05/13 00:59:23;;;;;;;;;;;;;;;;;;5011848;28;19996;-79
2023/05/13 01:01:49;;;;;;;;;;;;;;;;;;4995371;28;19917;-80
2023/05/13 01:04:14;;;;;;;;;;;;;;;;;;5011429;28;19913;-80
2023/05/13 01:06:40;;;;;;;;;;;;;;;;;;5013092;28;19913;-79
2023/05/13 01:09:06;;;;;;;;;;;;;;;;;;5011488;28;20419;-80
2023/05/13 01:11:31;;;;;;;;;;;;;;;;;;5012460;28;19960;-80
2023/05/13 01:13:56;;;;;;;;;;;;;;;;;;5010840;28;19944;-80
2023/05/13 01:16:22;;;;;;;;;;;;;;;;;;5012634;28;19920;-80
2023/05/13 01:18:47;;;;;;;;;;;;;;;;;;5012547;28;19913;-79
2023/05/13 01:21:12;;;;;;;;;;;;;;;;;;5012133;28;20327;-80
2023/05/13 01:23:38;;;;;;;;;;;;;;;;;;4979134;28;20273;-80
2023/05/13 01:26:03;;;;;;;;;;;;;;;;;;4994971;28;20428;-80
2023/05/13 01:28:30;;;;;;;;;;;;;;;;;;4995615;28;20125;-80
2023/05/13 01:30:56;;;;;;;;;;;;;;;;;;4979005;28;20383;-80
2023/05/13 01:33:21;;;;;;;;;;;;;;;;;;5011170;28;19920;-80
2023/05/13 01:35:46;;;;;;;;;;;;;;;;;;5011553;28;19914;-79
2023/05/13 01:38:14;;;;;;;;;;;;;;;;;;5011117;28;19936;-80
2023/05/13 01:40:42;;;;;;;;;;;;;;;;;;5012258;28;19914;-80
2023/05/13 01:43:07;;;;;;;;;;;;;;;;;;5012250;28;20404;-80
2023/05/13 01:45:34;;;;;;;;;;;;;;;;;;5010896;28;19913;-80
2023/05/13 01:48:00;;;;;;;;;;;;;;;;;;5010739;28;19933;-80
2023/05/13 01:50:32;;;;;;;;;;;;;;;;;;4995198;28;19932;-81
2023/05/13 01:52:57;;;;;;;;;;;;;;;;;;4995023;28;20336;-79
2023/05/13 01:55:23;;;;;;;;;;;;;;;;;;4994614;28;19913;-80
2023/05/13 01:57:48;;;;;;;;;;;;;;;;;;5011251;28;19979;-80
2023/05/13 02:00:13;;;;;;;;;;;;;;;;;;4997945;28;19952;-79
2023/05/13 02:02:42;;;;;;;;;;;;;;;;;;5014215;28;19914;-79
2023/05/13 02:05:07;;;;;;;;;;;;;;;;;;5016801;28;20440;-80
2023/05/13 02:07:33;;;;;;;;;;;;;;;;;;5015214;28;19918;-80
2023/05/13 02:09:58;;;;;;;;;;;;;;;;;;4997726;28;20384;-81
2023/05/13 02:12:24;;;;;;;;;;;;;;;;;;4997934;28;20047;-79
2023/05/13 02:14:49;;;;;;;;;;;;;;;;;;5015209;28;19914;-80
2023/05/13 02:17:14;;;;;;;;;;;;;;;;;;5014658;28;19971;-79
2023/05/13 02:19:40;;;;;;;;;;;;;;;;;;4997463;28;20392;-80
2023/05/13 02:22:07;;;;;;;;;;;;;;;;;;5014161;28;19928;-80
2023/05/13 02:24:34;;;;;;;;;;;;;;;;;;5014187;28;19914;-80
2023/05/13 02:26:59;;;;;;;;;;;;;;;;;;4997483;28;19917;-80
2023/05/13 02:29:25;;;;;;;;;;;;;;;;;;5013904;28;19960;-80
2023/05/13 02:31:51;;;;;;;;;;;;;;;;;;5014992;28;19949;-80
2023/05/13 02:34:16;;;;;;;;;;;;;;;;;;5014714;28;20352;-80
2023/05/13 02:36:42;;;;;;;;;;;;;;;;;;5014997;28;19919;-80
2023/05/13 02:39:07;;;;;;;;;;;;;;;;;;5013855;28;19919;-80
2023/05/13 02:41:33;;;;;;;;;;;;;;;;;;4997722;28;20422;-79
2023/05/13 02:43:59;;;;;;;;;;;;;;;;;;5013640;28;19996;-79
2023/05/13 02:46:24;;;;;;;;;;;;;;;;;;5013628;28;19964;-80
2023/05/13 02:48:50;;;;;;;;;;;;;;;;;;4997335;28;19918;-81
2023/05/13 02:51:16;;;;;;;;;;;;;;;;;;5013472;28;19914;-80
2023/05/13 02:53:41;;;;;;;;;;;;;;;;;;5032893;28;20506;-81
2023/05/13 02:56:08;;;;;;;;;;;;;;;;;;5033426;28;19936;-78
2023/05/13 02:58:35;;;;;;;;;;;;;;;;;;5017387;28;19913;-81
2023/05/13 03:01:00;;;;;;;;;;;;;;;;;;5016872;28;19928;-79
2023/05/13 03:03:26;;;;;;;;;;;;;;;;;;5034197;28;19917;-80
2023/05/13 03:05:51;;;;;;;;;;;;;;;;;;5035463;28;19917;-80
2023/05/13 03:08:17;;;;;;;;;;;;;;;;;;5035211;28;20331;-80
2023/05/13 03:10:42;;;;;;;;;;;;;;;;;;5032769;28;19910;-80
2023/05/13 03:13:07;;;;;;;;;;;;;;;;;;5052857;28;19924;-79
2023/05/13 03:15:33;;;;;;;;;;;;;;;;;;5049079;28;20014;-80
2023/05/13 03:17:59;;;;;;;;;;;;;;;;;;5029998;28;19913;-79
2023/05/13 03:20:24;;;;;;;;;;;;;;;;;;5051550;28;19925;-79
2023/05/13 03:22:50;;;;;;;;;;;;;;;;;;5048786;28;19913;-79
2023/05/13 03:25:15;;;;;;;;;;;;;;;;;;5041190;28;19952;-80
2023/05/13 03:27:46;;;;;;;;;;;;;;;;;;5035032;28;20392;-80
2023/05/13 03:30:11;;;;;;;;;;;;;;;;;;5037418;28;20007;-80
2023/05/13 03:32:44;;;;;;;;;;;;;;;;;;5027793;28;19914;-79
2023/05/13 03:35:10;;;;;;;;;;;;;;;;;;5013020;28;20001;-80
2023/05/13 03:37:36;;;;;;;;;;;;;;;;;;4996883;28;20012;-78
2023/05/13 03:40:02;;;;;;;;;;;;;;;;;;5012986;28;19914;-79
2023/05/13 03:42:29;;;;;;;;;;;;;;;;;;4996728;28;20364;-80
2023/05/13 03:44:55;;;;;;;;;;;;;;;;;;5013184;28;19917;-80
2023/05/13 03:47:21;;;;;;;;;;;;;;;;;;5013015;28;19960;-79
2023/05/13 03:49:47;;;;;;;;;;;;;;;;;;4996400;28;20346;-79
2023/05/13 03:52:13;;;;;;;;;;;;;;;;;;4996693;28;19937;-80
2023/05/13 03:54:38;;;;;;;;;;;;;;;;;;5014325;28;19960;-81
2023/05/13 03:57:04;;;;;;;;;;;;;;;;;;5012652;28;20008;-79
2023/05/13 03:59:30;;;;;;;;;;;;;;;;;;5012771;28;19968;-79
2023/05/13 04:01:56;;;;;;;;;;;;;;;;;;4996067;28;19917;-80
2023/05/13 04:04:21;;;;;;;;;;;;;;;;;;4995690;28;20269;-78
2023/05/13 04:06:46;;;;;;;;;;;;;;;;;;5012060;28;19913;-79
2023/05/13 04:09:12;;;;;;;;;;;;;;;;;;5012063;28;19913;-79
2023/05/13 04:11:37;;;;;;;;;;;;;;;;;;5011765;28;20015;-80
2023/05/13 04:14:03;;;;;;;;;;;;;;;;;;5013450;28;19924;-79
2023/05/13 04:16:28;;;;;;;;;;;;;;;;;;5012260;28;19914;-78
2023/05/13 04:18:53;;;;;;;;;;;;;;;;;;5012178;28;19920;-80
2023/05/13 04:21:19;;;;;;;;;;;;;;;;;;5011660;28;19918;-78
2023/05/13 04:23:47;;;;;;;;;;;;;;;;;;5013038;28;19914;-80
2023/05/13 04:26:12;;;;;;;;;;;;;;;;;;5013023;28;19916;-81
2023/05/13 04:28:38;;;;;;;;;;;;;;;;;;5011684;28;19917;-79
2023/05/13 04:31:06;;;;;;;;;;;;;;;;;;5326097;22;19940;-84
2023/05/13 04:33:34;;;;;;;;;;;;;;;;;;4981828;28;19928;-82
2023/05/13 04:35:59;;;;;;;;;;;;;;;;;;4975942;28;20389;-82
2023/05/13 04:38:25;;;;;;;;;;;;;;;;;;4977518;28;19914;-82
2023/05/13 04:40:50;;;;;;;;;;;;;;;;;;5007892;28;19913;-82
2023/05/13 04:43:21;;;;;;;;;;;;;;;;;;4976555;28;19914;-82
2023/05/13 04:45:50;;;;;;;;;;;;;;;;;;4992079;28;19921;-81
2023/05/13 04:48:16;;;;;;;;;;;;;;;;;;4975579;28;19922;-82
2023/05/13 04:50:41;;;;;;;;;;;;;;;;;;4992102;28;20025;-79
2023/05/13 04:53:07;;;;;;;;;;;;;;;;;;5002153;28;19952;-81
2023/05/13 04:55:32;;;;;;;;;;;;;;;;;;5011243;28;19914;-82
2023/05/13 04:57:57;;;;;;;;;;;;;;;;;;5011625;28;19914;-82
2023/05/13 05:00:23;;;;;;;;;;;;;;;;;;4995055;28;19914;-80
2023/05/13 05:02:49;;;;;;;;;;;;;;;;;;4995863;28;19944;-80
2023/05/13 05:05:15;;;;;;;;;;;;;;;;;;5011724;28;20008;-82
2023/05/13 05:07:41;;;;;;;;;;;;;;;;;;5011445;28;20292;-82
2023/05/13 05:10:07;;;;;;;;;;;;;;;;;;5011171;28;20008;-82
2023/05/13 05:12:32;;;;;;;;;;;;;;;;;;4994900;28;20012;-81
2023/05/13 05:14:57;;;;;;;;;;;;;;;;;;5011248;28;19914;-81
2023/05/13 05:17:23;;;;;;;;;;;;;;;;;;5012230;28;20164;-81
2023/05/13 05:19:48;;;;;;;;;;;;;;;;;;5011250;28;19917;-80
2023/05/13 05:22:13;;;;;;;;;;;;;;;;;;5012569;28;20372;-81
2023/05/13 05:24:39;;;;;;;;;;;;;;;;;;5010968;28;20451;-81
2023/05/13 05:27:05;;;;;;;;;;;;;;;;;;5011234;28;19921;-82
2023/05/13 05:29:30;;;;;;;;;;;;;;;;;;5011224;28;19968;-80
2023/05/13 05:31:56;;;;;;;;;;;;;;;;;;5007610;28;20388;-81
2023/05/13 05:34:21;;;;;;;;;;;;;;;;;;4994454;28;19966;-82
2023/05/13 05:36:47;;;;;;;;;;;;;;;;;;4979059;28;19929;-85
2023/05/13 05:39:14;;;;;;;;;;;;;;;;;;4979199;28;19920;-81
2023/05/13 05:41:39;;;;;;;;;;;;;;;;;;4996252;28;20012;-81
2023/05/13 05:44:05;;;;;;;;;;;;;;;;;;4996349;28;19960;-81
2023/05/13 05:46:31;;;;;;;;;;;;;;;;;;4995239;28;19920;-81
2023/05/13 05:48:57;;;;;;;;;;;;;;;;;;4995012;28;19918;-81
2023/05/13 05:51:23;;;;;;;;;;;;;;;;;;4978547;28;19937;-83
2023/05/13 05:53:48;;;;;;;;;;;;;;;;;;4995124;28;19914;-81
2023/05/13 05:56:15;;;;;;;;;;;;;;;;;;4978839;28;20393;-82
2023/05/13 05:58:42;;;;;;;;;;;;;;;;;;4995380;28;19914;-82
2023/05/13 06:01:07;;;;;;;;;;;;;;;;;;5007396;23;19926;-76
2023/05/13 06:03:33;;;;;;;;;;;;;;;;;;4962898;28;19918;-76
2023/05/13 06:05:59;;;;;;;;;;;;;;;;;;4995238;28;19920;-76
2023/05/13 06:08:28;;;;;;;;;;;;;;;;;;4994165;28;20301;-76
2023/05/13 06:10:54;;;;;;;;;;;;;;;;;;4968897;28;19974;-76
2023/05/13 06:13:19;;;;;;;;;;;;;;;;;;4976351;28;20018;-77
2023/05/13 06:15:45;;;;;;;;;;;;;;;;;;4976415;28;19913;-77
2023/05/13 06:18:10;;;;;;;;;;;;;;;;;;4976343;28;19915;-76
2023/05/13 06:20:36;;;;;;;;;;;;;;;;;;4974770;28;20266;-76
2023/05/13 06:23:01;;;;;;;;;;;;;;;;;;4976279;28;19918;-76
2023/05/13 06:25:27;;;;;;;;;;;;;;;;;;4991369;28;19917;-75
2023/05/13 06:27:52;;;;;;;;;;;;;;;;;;4975988;28;20004;-75
2023/05/13 06:30:22;;;;;;;;;;;;;;;;;;4974463;28;19914;-76
2023/05/13 06:32:47;;;;;;;;;;;;;;;;;;4963575;28;19921;-77
2023/05/13 06:35:12;;;;;;;;;;;;;;;;;;4956252;28;20301;-75
2023/05/13 06:37:38;;;;;;;;;;;;;;;;;;4956356;28;20290;-75
2023/05/13 06:40:04;;;;;;;;;;;;;;;;;;4971277;28;19918;-75
2023/05/13 06:42:31;;;;;;;;;;;;;;;;;;4955281;29;19914;-76
2023/05/13 06:44:59;;;;;;;;;;;;;;;;;;4955416;28;19961;-77
2023/05/13 06:47:28;;;;;;;;;;;;;;;;;;4955345;29;19919;-76
2023/05/13 06:49:53;;;;;;;;;;;;;;;;;;4958340;28;19915;-76
2023/05/13 06:52:18;;;;;;;;;;;;;;;;;;4991643;28;19918;-77
2023/05/13 06:54:44;;;;;;;;;;;;;;;;;;4976405;28;19917;-77
2023/05/13 06:57:09;;;;;;;;;;;;;;;;;;4961664;28;19921;-77
2023/05/13 06:59:38;;;;;;;;;;;;;;;;;;4956366;28;19915;-77
2023/05/13 07:02:03;;;;;;;;;;;;;;;;;;4956266;28;19924;-78
2023/05/13 07:04:29;;;;;;;;;;;;;;;;;;4956513;28;19969;-78
2023/05/13 07:06:54;;;;;;;;;;;;;;;;;;4956434;28;19960;-77
2023/05/13 07:09:19;;;;;;;;;;;;;;;;;;4956027;28;19922;-76
2023/05/13 07:11:45;;;;;;;;;;;;;;;;;;4956189;28;19914;-76
2023/05/13 07:14:11;;;;;;;;;;;;;;;;;;4956065;28;19911;-76
2023/05/13 07:16:36;;;;;;;;;;;;;;;;;;4970720;28;19914;-77
2023/05/13 07:19:02;;;;;;;;;;;;;;;;;;4970466;28;19942;-77
2023/05/13 07:21:27;;;;;;;;;;;;;;;;;;4970248;28;19914;-76
2023/05/13 07:23:53;;;;;;;;;;;;;;;;;;4955579;28;19914;-77
2023/05/13 07:26:18;;;;;;;;;;;;;;;;;;4955578;28;19914;-77
2023/05/13 07:28:44;;;;;;;;;;;;;;;;;;4954217;29;20294;-78
2023/05/13 07:31:09;;;;;;;;;;;;;;;;;;4955325;28;20286;-77
2023/05/13 07:33:34;;;;;;;;;;;;;;;;;;4955498;28;19969;-78
2023/05/13 07:36:00;;;;;;;;;;;;;;;;;;4955760;28;20271;-77
2023/05/13 07:38:25;;;;;;;;;;;;;;;;;;4955299;28;19921;-77
2023/05/13 07:40:51;;;;;;;;;;;;;;;;;;4955489;28;20401;-76
2023/05/13 07:43:22;;;;;;;;;;;;;;;;;;4955357;28;20263;-76
2023/05/13 07:45:48;;;;;;;;;;;;;;;;;;4955323;28;19926;-76
2023/05/13 07:48:13;;;;;;;;;;;;;;;;;;4955304;28;19989;-77
2023/05/13 07:50:38;;;;;;;;;;;;;;;;;;4965379;28;19914;-77
2023/05/13 07:53:04;;;;;;;;;;;;;;;;;;4974321;28;19984;-77
2023/05/13 07:55:30;;;;;;;;;;;;;;;;;;4972688;28;20267;-78
2023/05/13 07:57:56;;;;;;;;;;;;;;;;;;4973177;28;20016;-78
2023/05/13 08:00:21;;;;;;;;;;;;;;;;;;4973005;28;19936;-77
2023/05/13 08:02:47;;;;;;;;;;;;;;;;;;4958364;28;20350;-78
2023/05/13 08:05:12;;;;;;;;;;;;;;;;;;4954918;28;20003;-77
2023/05/13 08:07:38;;;;;;;;;;;;;;;;;;4969430;28;19926;-78
2023/05/13 08:10:03;;;;;;;;;;;;;;;;;;4969744;28;20374;-76
2023/05/13 08:12:29;;;;;;;;;;;;;;;;;;4953802;28;19980;-77
2023/05/13 08:14:56;;;;;;;;;;;;;;;;;;4968931;28;20192;-77
2023/05/13 08:17:22;;;;;;;;;;;;;;;;;;4937615;29;19922;-77
2023/05/13 08:19:47;;;;;;;;;;;;;;;;;;4953400;28;19914;-78
2023/05/13 08:22:13;;;;;;;;;;;;;;;;;;4970171;28;19926;-78
2023/05/13 08:24:42;;;;;;;;;;;;;;;;;;4969849;28;19950;-78
2023/05/13 08:27:07;;;;;;;;;;;;;;;;;;4955229;29;19915;-76
2023/05/13 08:29:32;;;;;;;;;;;;;;;;;;4969552;28;20107;-77
2023/05/13 08:31:58;;;;;;;;;;;;;;;;;;4969378;28;19922;-77
2023/05/13 08:34:23;;;;;;;;;;;;;;;;;;4954618;28;19914;-78
2023/05/13 08:36:49;;;;;;;;;;;;;;;;;;4954427;28;20413;-78
2023/05/13 08:39:14;;;;;;;;;;;;;;;;;;4954413;28;19919;-77
2023/05/13 08:41:40;;;;;;;;;;;;;;;;;;4954283;28;20012;-78
2023/05/13 08:44:06;;;;;;;;;;;;;;;;;;4953462;29;19919;-78
2023/05/13 08:46:31;;;;;;;;;;;;;;;;;;4953479;29;19915;-78
2023/05/13 08:48:57;;;;;;;;;;;;;;;;;;4953088;29;20004;-79
2023/05/13 08:51:23;;;;;;;;;;;;;;;;;;4953237;28;19915;-77
2023/05/13 08:53:48;;;;;;;;;;;;;;;;;;4962241;28;19914;-77
2023/05/13 08:56:14;;;;;;;;;;;;;;;;;;4952228;28;19919;-77
2023/05/13 08:58:40;;;;;;;;;;;;;;;;;;4972121;28;19914;-79
2023/05/13 09:01:08;;;;;;;;;;;;;;;;;;4973080;28;20017;-78
2023/05/13 09:03:34;;;;;;;;;;;;;;;;;;4973109;28;19914;-78
2023/05/13 09:05:59;;;;;;;;;;;;;;;;;;4956523;28;20009;-78
2023/05/13 09:08:25;;;;;;;;;;;;;;;;;;4991222;28;19918;-78
2023/05/13 09:10:50;;;;;;;;;;;;;;;;;;4975916;28;19914;-78
2023/05/13 09:13:16;;;;;;;;;;;;;;;;;;4992651;28;19960;-77
2023/05/13 09:15:44;;;;;;;;;;;;;;;;;;4992221;28;19915;-77
2023/05/13 09:18:10;;;;;;;;;;;;;;;;;;4977425;28;19914;-77
2023/05/13 09:20:35;;;;;;;;;;;;;;;;;;4976492;28;19915;-78
2023/05/13 09:23:01;;;;;;;;;;;;;;;;;;4976790;28;19914;-78
2023/05/13 09:25:29;;;;;;;;;;;;;;;;;;4976390;28;19914;-76
2023/05/13 09:27:57;;;;;;;;;;;;;;;;;;4977318;28;20300;-77
2023/05/13 09:30:23;;;;;;;;;;;;;;;;;;4960015;28;19914;-77
2023/05/13 09:32:48;;;;;;;;;;;;;;;;;;4992642;28;20258;-77
2023/05/13 09:35:17;;;;;;;;;;;;;;;;;;4976275;28;19925;-78
2023/05/13 09:37:42;;;;;;;;;;;;;;;;;;4976058;28;19921;-78
2023/05/13 09:40:08;;;;;;;;;;;;;;;;;;4976002;28;19940;-78
2023/05/13 09:42:33;;;;;;;;;;;;;;;;;;4976594;28;20440;-79
2023/05/13 09:44:59;;;;;;;;;;;;;;;;;;4973063;28;19914;-76
2023/05/13 09:47:25;;;;;;;;;;;;;;;;;;4957821;28;20065;-79
2023/05/13 09:49:50;;;;;;;;;;;;;;;;;;4957972;28;19921;-79
2023/05/13 09:52:16;;;;;;;;;;;;;;;;;;4972571;28;20322;-78
2023/05/13 09:54:42;;;;;;;;;;;;;;;;;;4970550;28;19976;-79
2023/05/13 09:57:07;;;;;;;;;;;;;;;;;;4975908;28;19968;-78
2023/05/13 09:59:33;;;;;;;;;;;;;;;;;;4975803;28;20297;-78
2023/05/13 10:02:00;;;;;;;;;;;;;;;;;;4977077;28;19980;-77
2023/05/13 10:04:26;;;;;;;;;;;;;;;;;;4977468;28;19918;-77
2023/05/13 10:06:51;;;;;;;;;;;;;;;;;;4970529;28;20005;-77
2023/05/13 10:09:17;;;;;;;;;;;;;;;;;;4958933;28;20293;-79
2023/05/13 10:11:46;;;;;;;;;;;;;;;;;;4959124;28;20013;-78
2023/05/13 10:14:11;;;;;;;;;;;;;;;;;;4974307;28;19915;-78
2023/05/13 10:16:37;;;;;;;;;;;;;;;;;;4972520;28;19921;-77
2023/05/13 10:19:03;;;;;;;;;;;;;;;;;;4957054;28;19922;-78
2023/05/13 10:21:29;;;;;;;;;;;;;;;;;;4957414;28;19915;-79
2023/05/13 10:23:54;;;;;;;;;;;;;;;;;;4972033;28;19919;-78
2023/05/13 10:26:23;;;;;;;;;;;;;;;;;;4971670;28;19914;-79
2023/05/13 10:28:48;;;;;;;;;;;;;;;;;;4957147;28;19926;-80
2023/05/13 10:31:14;;;;;;;;;;;;;;;;;;4955684;28;20445;-77
2023/05/13 10:33:40;;;;;;;;;;;;;;;;;;4971926;28;19922;-79
2023/05/13 10:36:05;;;;;;;;;;;;;;;;;;4957090;28;19925;-79
2023/05/13 10:38:31;;;;;;;;;;;;;;;;;;4955489;29;19915;-78
2023/05/13 10:40:56;;;;;;;;;;;;;;;;;;4955668;29;19910;-78
2023/05/13 10:43:21;;;;;;;;;;;;;;;;;;4971349;28;19954;-79
2023/05/13 10:45:47;;;;;;;;;;;;;;;;;;4956799;28;19921;-78
2023/05/13 10:48:12;;;;;;;;;;;;;;;;;;4971788;28;20359;-79
2023/05/13 10:50:38;;;;;;;;;;;;;;;;;;4971371;28;20024;-80
2023/05/13 10:53:04;;;;;;;;;;;;;;;;;;4939229;29;19921;-80
2023/05/13 10:55:30;;;;;;;;;;;;;;;;;;4956839;28;19914;-78
2023/05/13 10:57:55;;;;;;;;;;;;;;;;;;4954632;28;20293;-79
2023/05/13 11:00:23;;;;;;;;;;;;;;;;;;4955888;28;19977;-81
2023/05/13 11:02:48;;;;;;;;;;;;;;;;;;4957746;28;20386;-80
2023/05/13 11:05:14;;;;;;;;;;;;;;;;;;4954766;28;19918;-80
2023/05/13 11:07:39;;;;;;;;;;;;;;;;;;4956167;28;19942;-78
2023/05/13 11:10:07;;;;;;;;;;;;;;;;;;4955907;28;19986;-80
2023/05/13 11:12:33;;;;;;;;;;;;;;;;;;4954628;28;20378;-80
2023/05/13 11:14:58;;;;;;;;;;;;;;;;;;4956083;28;20349;-79
2023/05/13 11:17:24;;;;;;;;;;;;;;;;;;4955494;28;20354;-78
2023/05/13 11:19:50;;;;;;;;;;;;;;;;;;4954874;28;19922;-78
2023/05/13 11:22:16;;;;;;;;;;;;;;;;;;4955340;28;19914;-78
2023/05/13 11:24:44;;;;;;;;;;;;;;;;;;4938465;29;19923;-80
2023/05/13 11:27:10;;;;;;;;;;;;;;;;;;4953790;29;19919;-79
2023/05/13 11:29:36;;;;;;;;;;;;;;;;;;4955999;28;20394;-77
2023/05/13 11:32:04;;;;;;;;;;;;;;;;;;4988059;28;19933;-79
2023/05/13 11:34:30;;;;;;;;;;;;;;;;;;4973510;28;20374;-80
2023/05/13 11:36:55;;;;;;;;;;;;;;;;;;4974486;28;20466;-78
2023/05/13 11:39:21;;;;;;;;;;;;;;;;;;4989175;28;19918;-79
2023/05/13 11:41:46;;;;;;;;;;;;;;;;;;4989211;28;19914;-79
2023/05/13 11:44:12;;;;;;;;;;;;;;;;;;4973312;28;20325;-79
2023/05/13 11:46:37;;;;;;;;;;;;;;;;;;4969785;28;19923;-78
2023/05/13 11:49:03;;;;;;;;;;;;;;;;;;4954976;29;20354;-78
2023/05/13 11:51:30;;;;;;;;;;;;;;;;;;4953698;28;19915;-77
2023/05/13 11:53:56;;;;;;;;;;;;;;;;;;4957470;28;19914;-77
2023/05/13 11:56:21;;;;;;;;;;;;;;;;;;4972689;28;20076;-77
2023/05/13 11:58:47;;;;;;;;;;;;;;;;;;4972770;28;20352;-78
2023/05/13 12:01:12;;;;;;;;;;;;;;;;;;4996175;23;20273;-82
2023/05/13 12:03:38;;;;;;;;;;;;;;;;;;5046854;28;19971;-79
2023/05/13 12:06:04;;;;;;;;;;;;;;;;;;5044250;28;19919;-78
2023/05/13 12:08:30;;;;;;;;;;;;;;;;;;5019902;28;19917;-80
2023/05/13 12:10:56;;;;;;;;;;;;;;;;;;5033711;28;19920;-80
2023/05/13 12:13:21;;;;;;;;;;;;;;;;;;5034568;28;19913;-80
2023/05/13 12:15:46;;;;;;;;;;;;;;;;;;5033979;28;19921;-79
2023/05/13 12:18:12;;;;;;;;;;;;;;;;;;5016253;28;20003;-79
2023/05/13 12:20:37;;;;;;;;;;;;;;;;;;5032989;28;20308;-79
2023/05/13 12:23:04;;;;;;;;;;;;;;;;;;5034366;28;19913;-79
2023/05/13 12:25:29;;;;;;;;;;;;;;;;;;5034336;28;19917;-79
2023/05/13 12:27:55;;;;;;;;;;;;;;;;;;5032549;28;19928;-78
2023/05/13 12:30:20;;;;;;;;;;;;;;;;;;5033292;28;20372;-79
2023/05/13 12:32:48;;;;;;;;;;;;;;;;;;5015920;28;19956;-80
2023/05/13 12:35:14;;;;;;;;;;;;;;;;;;5032260;28;20372;-79
2023/05/13 12:37:39;;;;;;;;;;;;;;;;;;5032782;28;19913;-78
2023/05/13 12:40:11;;;;;;;;;;;;;;;;;;5033654;28;19913;-80
2023/05/13 12:42:36;;;;;;;;;;;;;;;;;;5033559;28;19959;-79
2023/05/13 12:45:02;;;;;;;;;;;;;;;;;;5034066;28;19957;-80
2023/05/13 12:47:30;;;;;;;;;;;;;;;;;;4999506;28;19921;-79
2023/05/13 12:49:57;;;;;;;;;;;;;;;;;;5032221;28;19913;-78
2023/05/13 12:52:22;;;;;;;;;;;;;;;;;;5034604;28;19959;-80
2023/05/13 12:54:47;;;;;;;;;;;;;;;;;;5033935;28;20326;-80
2023/05/13 12:57:13;;;;;;;;;;;;;;;;;;5032567;28;19916;-79
2023/05/13 12:59:38;;;;;;;;;;;;;;;;;;5032360;28;20264;-80
2023/05/13 13:02:04;;;;;;;;;;;;;;;;;;5032337;28;20265;-79
2023/05/13 13:04:30;;;;;;;;;;;;;;;;;;5032245;28;19916;-79
2023/05/13 13:06:55;;;;;;;;;;;;;;;;;;5030980;28;19913;-81
2023/05/13 13:09:20;;;;;;;;;;;;;;;;;;5031239;28;19921;-81
2023/05/13 13:11:46;;;;;;;;;;;;;;;;;;5031484;28;19936;-80
2023/05/13 13:14:12;;;;;;;;;;;;;;;;;;5032568;28;19919;-81
2023/05/13 13:16:40;;;;;;;;;;;;;;;;;;5031381;28;19913;-80
2023/05/13 13:19:05;;;;;;;;;;;;;;;;;;5032559;28;19913;-81
2023/05/13 13:21:31;;;;;;;;;;;;;;;;;;5031559;28;20300;-79
2023/05/13 13:23:56;;;;;;;;;;;;;;;;;;5031386;28;20422;-79
2023/05/13 13:26:22;;;;;;;;;;;;;;;;;;5032649;28;19913;-80
2023/05/13 13:28:47;;;;;;;;;;;;;;;;;;5031568;28;20122;-79
2023/05/13 13:31:12;;;;;;;;;;;;;;;;;;5028048;28;19913;-80
2023/05/13 13:33:38;;;;;;;;;;;;;;;;;;5013286;28;19920;-81
2023/05/13 13:36:03;;;;;;;;;;;;;;;;;;5013852;28;19959;-81
2023/05/13 13:38:32;;;;;;;;;;;;;;;;;;5011162;28;19922;-80
2023/05/13 13:40:57;;;;;;;;;;;;;;;;;;5012261;28;19920;-80
2023/05/13 13:43:22;;;;;;;;;;;;;;;;;;4980487;28;20012;-79
2023/05/13 13:45:48;;;;;;;;;;;;;;;;;;5012481;28;19924;-81
2023/05/13 13:48:13;;;;;;;;;;;;;;;;;;5012487;28;19917;-81
2023/05/13 13:50:39;;;;;;;;;;;;;;;;;;5000792;28;20503;-81
2023/05/13 13:53:04;;;;;;;;;;;;;;;;;;5010967;28;19968;-79
2023/05/13 13:55:30;;;;;;;;;;;;;;;;;;5028255;28;19913;-81
2023/05/13 13:57:55;;;;;;;;;;;;;;;;;;5034390;28;20265;-80
2023/05/13 14:00:21;;;;;;;;;;;;;;;;;;5034274;28;20395;-80
2023/05/13 14:02:47;;;;;;;;;;;;;;;;;;5018995;28;19925;-79
2023/05/13 14:05:12;;;;;;;;;;;;;;;;;;5034237;28;19953;-80
2023/05/13 14:07:38;;;;;;;;;;;;;;;;;;5017697;28;19927;-80
2023/05/13 14:10:03;;;;;;;;;;;;;;;;;;5035313;28;19959;-80
2023/05/13 14:12:29;;;;;;;;;;;;;;;;;;5034988;28;20402;-80
2023/05/13 14:14:57;;;;;;;;;;;;;;;;;;5035201;28;20396;-81
2023/05/13 14:17:22;;;;;;;;;;;;;;;;;;5035345;28;19913;-80
2023/05/13 14:19:50;;;;;;;;;;;;;;;;;;5034857;28;19917;-80
2023/05/13 14:22:16;;;;;;;;;;;;;;;;;;5033561;28;19920;-79
2023/05/13 14:24:41;;;;;;;;;;;;;;;;;;5034103;28;19913;-80
2023/05/13 14:27:06;;;;;;;;;;;;;;;;;;5035470;28;19913;-80
2023/05/13 14:29:32;;;;;;;;;;;;;;;;;;5033445;28;20067;-79
2023/05/13 14:31:58;;;;;;;;;;;;;;;;;;5031120;28;19924;-80
2023/05/13 14:34:23;;;;;;;;;;;;;;;;;;5014742;28;19914;-81
2023/05/13 14:36:49;;;;;;;;;;;;;;;;;;5015121;28;19913;-79
2023/05/13 14:39:14;;;;;;;;;;;;;;;;;;5016460;28;19914;-81
2023/05/13 14:41:41;;;;;;;;;;;;;;;;;;5032860;28;19914;-80
2023/05/13 14:44:06;;;;;;;;;;;;;;;;;;5034446;28;19913;-76
2023/05/13 14:46:34;;;;;;;;;;;;;;;;;;5021503;28;19914;-80
2023/05/13 14:48:59;;;;;;;;;;;;;;;;;;5020992;28;19921;-78
2023/05/13 14:51:25;;;;;;;;;;;;;;;;;;5022262;28;19984;-81
2023/05/13 14:53:50;;;;;;;;;;;;;;;;;;5034189;28;19921;-79
2023/05/13 14:56:16;;;;;;;;;;;;;;;;;;5056959;28;20399;-79
2023/05/13 14:58:41;;;;;;;;;;;;;;;;;;5056091;28;19913;-79
2023/05/13 15:01:10;;;;;;;;;;;;;;;;;;5038326;28;20318;-81
2023/05/13 15:03:35;;;;;;;;;;;;;;;;;;5037580;28;19913;-81
2023/05/13 15:06:01;;;;;;;;;;;;;;;;;;5037672;28;20359;-80
2023/05/13 15:08:29;;;;;;;;;;;;;;;;;;5053175;28;20403;-81
2023/05/13 15:10:55;;;;;;;;;;;;;;;;;;5036584;28;19912;-80
2023/05/13 15:13:20;;;;;;;;;;;;;;;;;;5054806;28;19913;-80
2023/05/13 15:15:46;;;;;;;;;;;;;;;;;;5054962;28;20295;-78
2023/05/13 15:18:11;;;;;;;;;;;;;;;;;;5054997;28;20294;-79
2023/05/13 15:20:44;;;;;;;;;;;;;;;;;;5055331;28;19971;-80
2023/05/13 15:23:09;;;;;;;;;;;;;;;;;;5054285;28;19919;-80
2023/05/13 15:25:35;;;;;;;;;;;;;;;;;;5054438;28;20300;-79
2023/05/13 15:28:00;;;;;;;;;;;;;;;;;;5019698;28;20380;-79
2023/05/13 15:30:28;;;;;;;;;;;;;;;;;;5039858;28;19918;-79
2023/05/13 15:32:54;;;;;;;;;;;;;;;;;;5013524;28;19914;-81
2023/05/13 15:35:19;;;;;;;;;;;;;;;;;;5013540;28;20380;-79
2023/05/13 15:37:45;;;;;;;;;;;;;;;;;;4998500;28;19914;-80
2023/05/13 15:40:10;;;;;;;;;;;;;;;;;;5018012;28;19918;-80
2023/05/13 15:42:36;;;;;;;;;;;;;;;;;;4998601;28;19917;-79
2023/05/13 15:45:01;;;;;;;;;;;;;;;;;;5014868;28;20323;-78
2023/05/13 15:47:27;;;;;;;;;;;;;;;;;;4996924;28;19913;-79
2023/05/13 15:49:53;;;;;;;;;;;;;;;;;;5012407;28;20423;-79
2023/05/13 15:52:18;;;;;;;;;;;;;;;;;;5012444;28;19928;-79
2023/05/13 15:54:43;;;;;;;;;;;;;;;;;;5018010;28;19913;-80
2023/05/13 15:57:09;;;;;;;;;;;;;;;;;;5031893;28;20394;-79
2023/05/13 15:59:34;;;;;;;;;;;;;;;;;;5033441;28;19913;-79
2023/05/13 16:02:00;;;;;;;;;;;;;;;;;;5033050;28;20431;-80
2023/05/13 16:04:25;;;;;;;;;;;;;;;;;;5033375;28;19921;-79
2023/05/13 16:06:51;;;;;;;;;;;;;;;;;;5031975;28;19920;-78
2023/05/13 16:09:16;;;;;;;;;;;;;;;;;;5033420;28;19923;-79
2023/05/13 16:11:42;;;;;;;;;;;;;;;;;;5033307;28;19944;-80
2023/05/13 16:14:07;;;;;;;;;;;;;;;;;;5031876;28;20044;-80
2023/05/13 16:16:33;;;;;;;;;;;;;;;;;;5015263;28;19971;-80
2023/05/13 16:18:58;;;;;;;;;;;;;;;;;;5033516;28;19913;-79
2023/05/13 16:21:24;;;;;;;;;;;;;;;;;;5032456;28;19936;-80
2023/05/13 16:23:49;;;;;;;;;;;;;;;;;;5031442;28;19979;-80
2023/05/13 16:26:15;;;;;;;;;;;;;;;;;;5031839;28;19913;-81
2023/05/13 16:28:40;;;;;;;;;;;;;;;;;;5033088;28;19960;-79
2023/05/13 16:31:06;;;;;;;;;;;;;;;;;;5028063;28;19920;-79
2023/05/13 16:33:35;;;;;;;;;;;;;;;;;;5013424;28;19920;-80
2023/05/13 16:36:00;;;;;;;;;;;;;;;;;;5012147;28;19920;-79